createdAt,value
2023-03-03T00:01:56.734Z,0.01
2023-03-03T00:04:26.161Z,0.14
2023-03-03T00:06:52.881Z,0.06
2023-03-03T00:09:19.736Z,0.04
2023-03-03T00:11:50.695Z,-0.02
2023-03-03T00:14:33.499Z,-0.02
2023-03-03T00:17:22.947Z,0.00
2023-03-03T00:19:50.497Z,-0.04
2023-03-03T00:22:31.447Z,-0.10
2023-03-03T00:25:31.877Z,-0.10
2023-03-03T00:28:20.374Z,-0.17
2023-03-03T00:30:47.218Z,-0.20
2023-03-03T00:33:54.759Z,-0.22
2023-03-03T00:36:38.116Z,-0.26
2023-03-03T00:39:29.670Z,-0.32
2023-03-03T00:41:58.186Z,-0.28
2023-03-03T00:44:43.726Z,-0.21
2023-03-03T00:47:32.758Z,-0.08
2023-03-03T00:50:11.836Z,-0.06
2023-03-03T00:52:54.108Z,-0.14
2023-03-03T00:55:21.413Z,-0.09
2023-03-03T00:57:48.259Z,-0.02
2023-03-03T01:00:18.550Z,0.06
2023-03-03T01:02:46.413Z,0.05
2023-03-03T01:05:14.876Z,-0.01
2023-03-03T01:07:41.659Z,-0.15
2023-03-03T01:10:09.368Z,-0.15
2023-03-03T01:12:36.493Z,-0.20
2023-03-03T01:15:03.631Z,-0.21
2023-03-03T01:17:30.380Z,-0.18
2023-03-03T01:19:57.225Z,-0.22
2023-03-03T01:22:24.111Z,-0.25
2023-03-03T01:24:51.178Z,-0.27
2023-03-03T01:27:17.974Z,-0.27
2023-03-03T01:29:44.712Z,-0.23
2023-03-03T01:32:11.506Z,-0.19
2023-03-03T01:34:38.373Z,-0.21
2023-03-03T01:37:05.154Z,-0.20
2023-03-03T01:39:31.870Z,-0.12
2023-03-03T01:41:58.569Z,-0.07
2023-03-03T01:44:25.368Z,-0.09
2023-03-03T01:47:13.034Z,-0.09
2023-03-03T01:49:48.597Z,-0.04
2023-03-03T01:52:27.929Z,0.03
2023-03-03T01:55:04.019Z,0.01
2023-03-03T01:57:37.274Z,-0.13
2023-03-03T02:00:06.243Z,-0.24
2023-03-03T02:02:42.084Z,-0.31
2023-03-03T02:05:09.873Z,-0.25
2023-03-03T02:07:37.756Z,-0.21
2023-03-03T02:10:11.917Z,-0.21
2023-03-03T02:12:57.702Z,-0.17
2023-03-03T02:15:39.319Z,-0.16
2023-03-03T02:18:12.846Z,-0.10
2023-03-03T02:21:04.039Z,-0.06
2023-03-03T02:23:59.994Z,-0.06
2023-03-03T02:26:29.561Z,-0.04
2023-03-03T02:29:04.380Z,-0.03
2023-03-03T02:31:33.216Z,-0.05
2023-03-03T02:34:00.334Z,-0.03
2023-03-03T02:36:35.219Z,-0.02
2023-03-03T02:39:11.674Z,-0.05
2023-03-03T02:41:47.393Z,0.00
2023-03-03T02:44:20.477Z,-0.02
2023-03-03T02:46:50.153Z,-0.06
2023-03-03T02:49:21.840Z,-0.09
2023-03-03T02:51:48.986Z,-0.10
2023-03-03T02:54:18.827Z,-0.04
2023-03-03T02:56:46.315Z,-0.02
2023-03-03T02:59:14.651Z,-0.08
2023-03-03T03:01:47.247Z,-0.16
2023-03-03T03:04:23.642Z,-0.23
2023-03-03T03:06:53.195Z,-0.23
2023-03-03T03:09:22.389Z,-0.25
2023-03-03T03:11:51.007Z,-0.25
2023-03-03T03:14:21.042Z,-0.31
2023-03-03T03:16:47.956Z,-0.34
2023-03-03T03:19:14.934Z,-0.31
2023-03-03T03:21:43.322Z,-0.27
2023-03-03T03:24:10.819Z,-0.26
2023-03-03T03:26:41.989Z,-0.19
2023-03-03T03:29:09.330Z,-0.17
2023-03-03T03:31:36.488Z,-0.16
2023-03-03T03:34:03.896Z,-0.13
2023-03-03T03:36:31.445Z,-0.07
2023-03-03T03:38:59.925Z,-0.09
2023-03-03T03:41:27.233Z,-0.08
2023-03-03T03:43:54.078Z,-0.03
2023-03-03T03:46:22.695Z,0.01
2023-03-03T03:48:49.636Z,-0.01
2023-03-03T03:51:19.648Z,-0.09
2023-03-03T03:53:46.509Z,-0.15
2023-03-03T03:56:13.235Z,-0.17
2023-03-03T03:58:42.574Z,-0.05
2023-03-03T04:01:12.022Z,0.02
2023-03-03T04:03:45.192Z,0.00
2023-03-03T04:06:15.627Z,-0.16
2023-03-03T04:08:42.603Z,-0.19
2023-03-03T04:11:10.199Z,-0.18
2023-03-03T04:13:37.653Z,-0.17
2023-03-03T04:16:07.142Z,-0.16
2023-03-03T04:18:35.017Z,-0.19
2023-03-03T04:21:02.910Z,-0.17
2023-03-03T04:23:29.811Z,-0.12
2023-03-03T04:25:56.627Z,-0.12
2023-03-03T04:28:25.193Z,-0.08
2023-03-03T04:30:52.623Z,-0.09
2023-03-03T04:33:21.278Z,-0.13
2023-03-03T04:35:49.384Z,-0.07
2023-03-03T04:38:16.314Z,-0.05
2023-03-03T04:40:43.871Z,-0.25
2023-03-03T04:43:12.537Z,-0.30
2023-03-03T04:45:39.330Z,-0.25
2023-03-03T04:48:07.440Z,-0.15
2023-03-03T04:50:35.247Z,-0.25
2023-03-03T04:53:02.443Z,-0.26
2023-03-03T04:55:29.351Z,-0.32
2023-03-03T04:57:56.149Z,-0.44
2023-03-03T05:00:23.310Z,-0.39
2023-03-03T05:02:50.123Z,-0.35
2023-03-03T05:05:17.025Z,-0.33
2023-03-03T05:07:43.805Z,-0.26
2023-03-03T05:10:11.366Z,-0.24
2023-03-03T05:12:38.463Z,-0.28
2023-03-03T05:15:06.236Z,-0.33
2023-03-03T05:17:33.133Z,-0.33
2023-03-03T05:19:59.895Z,-0.25
2023-03-03T05:22:27.403Z,-0.22
2023-03-03T05:24:55.825Z,-0.18
2023-03-03T05:27:22.928Z,-0.28
2023-03-03T05:29:50.247Z,-0.41
2023-03-03T05:32:17.585Z,-0.54
2023-03-03T05:34:44.831Z,-0.52
2023-03-03T05:37:12.022Z,-0.51
2023-03-03T05:39:40.244Z,-0.45
2023-03-03T05:42:08.425Z,-0.40
2023-03-03T05:44:35.732Z,-0.51
2023-03-03T05:47:02.810Z,-0.47
2023-03-03T05:49:29.682Z,-0.40
2023-03-03T05:51:56.944Z,-0.38
2023-03-03T05:54:24.358Z,-0.42
2023-03-03T05:56:51.106Z,-0.40
2023-03-03T05:59:18.003Z,-0.51
2023-03-03T06:01:44.825Z,-0.52
2023-03-03T06:04:11.652Z,-0.55
2023-03-03T06:06:38.491Z,-0.65
2023-03-03T06:09:05.289Z,-0.69
2023-03-03T06:11:32.527Z,-0.71
2023-03-03T06:13:59.309Z,-0.68
2023-03-03T06:16:26.100Z,-0.65
2023-03-03T06:18:52.894Z,-0.74
2023-03-03T06:21:19.696Z,-0.65
2023-03-03T06:23:46.471Z,-0.59
2023-03-03T06:26:13.307Z,-0.55
2023-03-03T06:28:40.093Z,-0.46
2023-03-03T06:31:06.919Z,-0.52
2023-03-03T06:33:33.653Z,-0.49
2023-03-03T06:36:00.878Z,-0.49
2023-03-03T06:38:27.711Z,-0.39
2023-03-03T06:40:54.475Z,-0.52
2023-03-03T06:43:21.303Z,-0.48
2023-03-03T06:45:48.170Z,-0.48
2023-03-03T06:48:15.010Z,-0.45
2023-03-03T06:50:42.484Z,-0.50
2023-03-03T06:53:16.529Z,-0.41
2023-03-03T06:55:45.006Z,-0.34
2023-03-03T06:58:16.134Z,-0.44
2023-03-03T07:00:53.428Z,-0.39
2023-03-03T07:03:29.664Z,-0.27
2023-03-03T07:05:56.425Z,-0.35
2023-03-03T07:08:25.033Z,-0.29
2023-03-03T07:10:53.286Z,-0.28
2023-03-03T07:13:26.698Z,-0.24
2023-03-03T07:15:56.871Z,-0.10
2023-03-03T07:18:41.050Z,-0.17
2023-03-03T07:21:22.861Z,-0.33
2023-03-03T07:23:52.098Z,-0.22
2023-03-03T07:26:30.626Z,-0.30
2023-03-03T07:29:27.139Z,-0.30
2023-03-03T07:31:56.962Z,-0.43
2023-03-03T07:35:22.420Z,-0.42
2023-03-03T07:37:49.414Z,-0.42
2023-03-03T07:40:33.739Z,-0.38
2023-03-03T07:43:02.044Z,-0.46
2023-03-03T07:45:38.674Z,-0.34
2023-03-03T07:48:22.087Z,-0.37
2023-03-03T07:50:49.976Z,-0.39
2023-03-03T07:53:35.751Z,-0.27
2023-03-03T07:56:16.302Z,-0.15
2023-03-03T07:58:44.748Z,-0.13
2023-03-03T08:01:42.756Z,-0.33
2023-03-03T08:04:18.493Z,-0.49
2023-03-03T08:06:52.461Z,-0.52
2023-03-03T08:09:45.195Z,-0.42
2023-03-03T08:12:47.194Z,-0.39
2023-03-03T08:15:24.205Z,-0.30
2023-03-03T08:17:54.427Z,-0.23
2023-03-03T08:20:39.401Z,-0.19
2023-03-03T08:23:06.253Z,-0.20
2023-03-03T08:25:33.092Z,-0.20
2023-03-03T08:27:59.813Z,-0.38
2023-03-03T08:30:26.587Z,-0.31
2023-03-03T08:32:53.350Z,-0.25
2023-03-03T08:35:20.165Z,-0.23
2023-03-03T08:37:46.948Z,-0.21
2023-03-03T08:40:13.824Z,-0.05
2023-03-03T08:42:40.673Z,-0.05
2023-03-03T08:45:07.992Z,0.18
2023-03-03T08:47:34.858Z,0.28
2023-03-03T08:50:01.693Z,0.23
2023-03-03T08:52:28.451Z,0.19
2023-03-03T08:54:55.273Z,0.20
2023-03-03T08:57:22.270Z,0.43
2023-03-03T08:59:49.168Z,0.45
2023-03-03T09:02:17.137Z,0.46
2023-03-03T09:04:44.069Z,0.52
2023-03-03T09:07:10.835Z,0.51
2023-03-03T09:09:37.605Z,0.53
2023-03-03T09:12:18.916Z,0.52
2023-03-03T09:14:47.061Z,0.57
2023-03-03T09:17:40.312Z,0.64
2023-03-03T09:20:57.317Z,0.07
2023-03-03T09:23:24.205Z,0.01
2023-03-03T09:25:52.765Z,0.06
2023-03-03T09:28:31.037Z,0.11
2023-03-03T09:31:01.634Z,-0.02
2023-03-03T09:33:33.415Z,0.12
2023-03-03T09:36:15.176Z,0.13
2023-03-03T09:38:45.765Z,0.11
2023-03-03T09:41:43.309Z,0.22
2023-03-03T09:44:32.496Z,0.14
2023-03-03T09:47:22.579Z,0.22
2023-03-03T09:50:30.985Z,0.04
2023-03-03T09:53:30.041Z,-0.11
2023-03-03T09:56:08.153Z,0.01
2023-03-03T09:59:01.899Z,0.10
2023-03-03T10:02:11.533Z,0.32
2023-03-03T10:04:59.153Z,-0.01
2023-03-03T10:08:02.614Z,0.18
2023-03-03T10:10:46.321Z,0.17
2023-03-03T10:13:31.233Z,0.27
2023-03-03T10:16:28.545Z,0.27
2023-03-03T10:19:03.480Z,0.38
2023-03-03T10:21:40.041Z,0.40
2023-03-03T10:24:15.729Z,0.22
2023-03-03T10:27:13.557Z,0.32
2023-03-03T10:30:40.895Z,0.47
2023-03-03T10:33:27.015Z,0.74
2023-03-03T10:36:12.310Z,0.91
2023-03-03T10:38:50.998Z,0.75
2023-03-03T10:41:44.306Z,0.71
2023-03-03T10:44:48.682Z,0.73
2023-03-03T10:47:31.729Z,0.82
2023-03-03T10:50:16.555Z,0.71
2023-03-03T10:52:50.910Z,0.71
2023-03-03T10:55:51.881Z,0.89
2023-03-03T10:58:45.420Z,0.65
2023-03-03T11:01:47.574Z,0.71
2023-03-03T11:04:32.896Z,0.69
2023-03-03T11:07:34.811Z,0.73
2023-03-03T11:10:30.989Z,0.87
2023-03-03T11:13:10.747Z,1.05
2023-03-03T11:16:33.966Z,1.33
2023-03-03T11:19:26.989Z,1.50
2023-03-03T11:22:05.341Z,1.23
2023-03-03T11:25:09.014Z,1.16
2023-03-03T11:27:44.772Z,1.07
2023-03-03T11:30:46.478Z,1.10
2023-03-03T11:33:41.096Z,1.05
2023-03-03T11:36:19.745Z,1.27
2023-03-03T11:39:10.043Z,1.25
2023-03-03T11:41:36.709Z,1.29
2023-03-03T11:44:35.768Z,1.27
2023-03-03T11:47:31.402Z,1.51
2023-03-03T11:50:03.821Z,1.44
2023-03-03T11:53:18.389Z,1.60
2023-03-03T11:55:54.832Z,1.53
2023-03-03T11:59:08.158Z,1.80
2023-03-03T12:01:53.727Z,2.17
2023-03-03T12:04:22.887Z,2.44
2023-03-03T12:07:25.718Z,2.61
2023-03-03T12:10:32.154Z,2.89
2023-03-03T12:13:01.856Z,2.53
2023-03-03T12:15:48.796Z,1.98
2023-03-03T12:18:33.097Z,2.19
2023-03-03T12:21:52.139Z,2.50
2023-03-03T12:24:31.281Z,1.90
2023-03-03T12:27:34.782Z,1.90
2023-03-03T12:30:10.713Z,2.06
2023-03-03T12:33:11.793Z,2.54
2023-03-03T12:36:43.042Z,2.67
2023-03-03T12:39:34.068Z,2.79
2023-03-03T12:42:07.148Z,2.75
2023-03-03T12:45:09.813Z,3.06
2023-03-03T12:47:40.338Z,2.93
2023-03-03T12:50:10.182Z,3.06
2023-03-03T12:53:10.911Z,2.87
2023-03-03T12:56:09.888Z,3.04
2023-03-03T12:58:48.676Z,3.36
2023-03-03T13:01:37.016Z,3.44
2023-03-03T13:04:37.070Z,3.24
2023-03-03T13:07:49.384Z,3.47
2023-03-03T13:10:46.989Z,3.22
2023-03-03T13:13:48.017Z,3.42
2023-03-03T13:16:40.398Z,3.59
2023-03-03T13:19:27.267Z,3.47
2023-03-03T13:22:08.615Z,3.55
2023-03-03T13:25:06.332Z,3.64
2023-03-03T13:27:40.926Z,3.65
2023-03-03T13:30:26.239Z,3.37
2023-03-03T13:33:08.728Z,3.45
2023-03-03T13:35:50.619Z,3.51
2023-03-03T13:38:30.836Z,3.37
2023-03-03T13:41:25.140Z,3.58
2023-03-03T13:44:41.302Z,3.78
2023-03-03T13:47:21.309Z,3.73
2023-03-03T13:50:10.778Z,3.47
2023-03-03T13:53:11.434Z,3.38
2023-03-03T13:56:03.226Z,3.24
2023-03-03T13:58:56.292Z,2.89
2023-03-03T14:01:49.423Z,3.12
2023-03-03T14:04:53.990Z,3.60
2023-03-03T14:07:39.247Z,3.47
2023-03-03T14:10:33.352Z,3.22
2023-03-03T14:13:10.160Z,2.93
2023-03-03T14:16:17.429Z,3.23
2023-03-03T14:19:06.102Z,2.89
2023-03-03T14:21:42.893Z,3.05
2023-03-03T14:24:18.386Z,3.00
2023-03-03T14:26:50.778Z,2.94
2023-03-03T14:29:27.242Z,3.00
2023-03-03T14:32:20.286Z,3.38
2023-03-03T14:34:59.563Z,3.45
2023-03-03T14:37:43.210Z,3.58
2023-03-03T14:40:09.869Z,3.51
2023-03-03T14:43:19.807Z,3.52
2023-03-03T14:45:47.649Z,3.19
2023-03-03T14:48:25.961Z,3.23
2023-03-03T14:51:29.165Z,3.02
2023-03-03T14:53:57.926Z,3.06
2023-03-03T14:56:36.198Z,3.16
2023-03-03T14:59:24.199Z,3.28
2023-03-03T15:02:17.545Z,3.45
2023-03-03T15:04:46.141Z,3.61
2023-03-03T15:07:40.134Z,3.51
2023-03-03T15:10:11.977Z,3.54
2023-03-03T15:12:43.144Z,3.73
2023-03-03T15:15:22.659Z,3.59
2023-03-03T15:17:55.219Z,3.70
2023-03-03T15:21:00.398Z,3.63
2023-03-03T15:24:03.604Z,3.66
2023-03-03T15:26:57.555Z,3.74
2023-03-03T15:29:37.592Z,3.83
2023-03-03T15:32:30.721Z,3.83
2023-03-03T15:35:27.949Z,3.76
2023-03-03T15:38:22.996Z,3.70
2023-03-03T15:41:33.813Z,3.67
2023-03-03T15:44:16.733Z,3.78
2023-03-03T15:47:00.669Z,3.79
2023-03-03T15:49:58.394Z,3.77
2023-03-03T15:52:43.651Z,3.73
2023-03-03T15:55:39.858Z,3.82
2023-03-03T15:58:12.843Z,3.70
2023-03-03T16:00:48.548Z,3.67
2023-03-03T16:03:27.503Z,3.48
2023-03-03T16:06:01.669Z,3.66
2023-03-03T16:08:59.327Z,3.64
2023-03-03T16:11:47.481Z,3.60
2023-03-03T16:15:07.193Z,3.43
2023-03-03T16:17:46.680Z,3.42
2023-03-03T16:20:23.162Z,3.46
2023-03-03T16:23:33.729Z,3.53
2023-03-03T16:26:21.946Z,3.59
2023-03-03T16:29:28.152Z,3.58
2023-03-03T16:32:24.213Z,3.56
2023-03-03T16:35:01.460Z,3.51
2023-03-03T16:37:57.769Z,3.48
2023-03-03T16:40:32.021Z,3.50
2023-03-03T16:43:39.260Z,3.45
2023-03-03T16:46:37.163Z,3.40
2023-03-03T16:49:51.848Z,3.36
2023-03-03T16:52:31.818Z,3.31
2023-03-03T16:55:37.264Z,3.28
2023-03-03T16:58:15.954Z,3.26
2023-03-03T17:01:52.077Z,3.21
2023-03-03T17:04:46.618Z,3.19
2023-03-03T17:08:13.473Z,3.20
2023-03-03T17:10:59.628Z,3.19
2023-03-03T17:13:47.593Z,3.14
2023-03-03T17:16:50.072Z,3.11
2023-03-03T17:20:15.140Z,3.09
2023-03-03T17:23:19.954Z,3.05
2023-03-03T17:26:28.429Z,3.08
2023-03-03T17:29:07.335Z,3.09
2023-03-03T17:32:12.178Z,3.09
2023-03-03T17:35:09.587Z,3.11
2023-03-03T17:38:00.884Z,3.13
2023-03-03T17:40:58.392Z,3.14
2023-03-03T17:43:36.901Z,3.11
2023-03-03T17:46:15.648Z,3.14
2023-03-03T17:48:50.959Z,3.17
2023-03-03T17:52:07.426Z,3.19
2023-03-03T17:55:26.348Z,3.13
2023-03-03T17:58:22.997Z,3.13
2023-03-03T18:00:52.608Z,3.14
2023-03-03T18:03:34.714Z,3.13
2023-03-03T18:06:47.537Z,3.07
2023-03-03T18:09:37.817Z,3.04
2023-03-03T18:12:31.302Z,2.97
2023-03-03T18:15:29.443Z,2.90
2023-03-03T18:18:45.321Z,2.81
2023-03-03T18:21:23.743Z,2.70
2023-03-03T18:23:51.111Z,2.66
2023-03-03T18:26:37.625Z,2.60
2023-03-03T18:29:16.491Z,2.56
2023-03-03T18:31:52.714Z,2.53
2023-03-03T18:34:34.681Z,2.47
2023-03-03T18:37:10.587Z,2.47
2023-03-03T18:39:46.981Z,2.43
2023-03-03T18:42:17.216Z,2.34
2023-03-03T18:44:45.363Z,2.26
2023-03-03T18:47:12.719Z,2.21
2023-03-03T18:50:01.833Z,2.14
2023-03-03T18:52:34.998Z,2.18
2023-03-03T18:55:21.262Z,2.24
2023-03-03T18:58:26.588Z,2.23
2023-03-03T19:00:57.902Z,2.25
2023-03-03T19:03:58.262Z,2.37
2023-03-03T19:06:57.240Z,2.46
2023-03-03T19:09:57.342Z,2.50
2023-03-03T19:12:53.516Z,2.54
2023-03-03T19:15:30.250Z,2.57
2023-03-03T19:18:27.570Z,2.60
2023-03-03T19:21:01.352Z,2.63
2023-03-03T19:24:02.080Z,2.66
2023-03-03T19:27:03.872Z,2.62
2023-03-03T19:30:22.795Z,2.61
2023-03-03T19:33:01.825Z,2.59
2023-03-03T19:35:40.855Z,2.58
2023-03-03T19:38:18.573Z,2.62
2023-03-03T19:41:00.485Z,2.62
2023-03-03T19:43:34.667Z,2.65
2023-03-03T19:46:42.067Z,2.65
2023-03-03T19:49:27.587Z,2.61
2023-03-03T19:52:31.430Z,2.55
2023-03-03T19:55:28.199Z,2.50
2023-03-03T19:58:22.420Z,2.53
2023-03-03T20:01:24.675Z,2.54
2023-03-03T20:04:09.504Z,2.47
2023-03-03T20:06:42.448Z,2.47
2023-03-03T20:09:41.525Z,2.48
2023-03-03T20:12:31.352Z,2.54
2023-03-03T20:15:15.060Z,2.40
2023-03-03T20:18:14.110Z,2.40
2023-03-03T20:21:00.959Z,2.43
2023-03-03T20:24:00.005Z,2.38
2023-03-03T20:26:35.207Z,2.47
2023-03-03T20:29:45.733Z,2.33
2023-03-03T20:32:34.103Z,2.37
2023-03-03T20:35:28.331Z,2.34
2023-03-03T20:38:06.966Z,2.26
2023-03-03T20:41:04.168Z,2.37
2023-03-03T20:43:50.408Z,2.34
2023-03-03T20:47:14.254Z,2.26
2023-03-03T20:50:10.023Z,2.28
2023-03-03T20:52:48.163Z,2.42
2023-03-03T20:55:42.852Z,2.45
2023-03-03T20:58:38.377Z,2.35
2023-03-03T21:01:10.397Z,2.37
2023-03-03T21:03:39.910Z,2.33
2023-03-03T21:06:15.187Z,2.35
2023-03-03T21:08:53.463Z,2.42
2023-03-03T21:11:43.374Z,2.44
2023-03-03T21:14:37.057Z,2.39
2023-03-03T21:17:30.727Z,2.40
2023-03-03T21:20:27.498Z,2.37
2023-03-03T21:22:56.140Z,2.45
2023-03-03T21:25:41.472Z,2.47
2023-03-03T21:28:29.598Z,2.49
2023-03-03T21:31:06.760Z,2.47
2023-03-03T21:33:56.146Z,2.47
2023-03-03T21:36:32.214Z,2.51
2023-03-03T21:39:02.119Z,2.45
2023-03-03T21:42:06.060Z,2.46
2023-03-03T21:45:12.086Z,2.51
2023-03-03T21:47:38.989Z,2.50
2023-03-03T21:50:06.481Z,2.50
2023-03-03T21:52:33.326Z,2.50
2023-03-03T21:55:00.142Z,2.53
2023-03-03T21:57:27.760Z,2.52
2023-03-03T21:59:54.603Z,2.49
2023-03-03T22:02:21.567Z,2.56
2023-03-03T22:04:48.433Z,2.49
2023-03-03T22:07:15.216Z,2.41
2023-03-03T22:09:41.994Z,2.49
2023-03-03T22:12:08.876Z,2.53
2023-03-03T22:14:35.766Z,2.54
2023-03-03T22:17:02.993Z,2.51
2023-03-03T22:19:29.815Z,2.51
2023-03-03T22:21:56.645Z,2.53
2023-03-03T22:24:23.396Z,2.51
2023-03-03T22:26:50.306Z,2.53
2023-03-03T22:29:22.663Z,2.56
2023-03-03T22:31:50.768Z,2.60
2023-03-03T22:34:17.812Z,2.60
2023-03-03T22:36:44.573Z,2.66
2023-03-03T22:39:11.247Z,2.71
2023-03-03T22:41:37.950Z,2.71
2023-03-03T22:44:05.016Z,2.75
2023-03-03T22:46:31.815Z,2.77
2023-03-03T22:48:58.590Z,2.82
2023-03-03T22:51:26.205Z,2.85
2023-03-03T22:53:53.158Z,2.86
2023-03-03T22:56:20.012Z,2.84
2023-03-03T22:58:46.758Z,2.87
2023-03-03T23:01:13.666Z,2.90
2023-03-03T23:03:40.673Z,2.91
2023-03-03T23:06:09.637Z,2.91
2023-03-03T23:08:36.372Z,2.92
2023-03-03T23:11:03.259Z,2.94
2023-03-03T23:13:30.065Z,2.96
2023-03-03T23:16:00.096Z,2.98
2023-03-03T23:18:28.273Z,3.01
2023-03-03T23:20:56.194Z,3.00
2023-03-03T23:23:27.228Z,3.03
2023-03-03T23:25:54.061Z,3.05
2023-03-03T23:28:20.838Z,3.03
2023-03-03T23:30:47.685Z,3.05
2023-03-03T23:33:14.765Z,3.05
2023-03-03T23:35:41.712Z,3.06
2023-03-03T23:38:08.698Z,3.05
2023-03-03T23:40:35.458Z,3.07
2023-03-03T23:43:02.209Z,3.09
2023-03-03T23:45:28.980Z,3.14
2023-03-03T23:47:56.113Z,3.17
2023-03-03T23:50:22.796Z,3.17
2023-03-03T23:52:49.509Z,3.18
2023-03-03T23:55:16.551Z,3.19
2023-03-03T23:57:43.360Z,3.22
